Terminal Aerodrome Forecast
Issued by NWS Cleveland, OH

Home | Current Version | Previous Version | Text Only | Print | Product List | Glossary On
Versions: 1 2 3 4 5 6 7 8 9 10 11 12 13 14 15 16 17 18 19
818
FTUS41 KCLE 291720
TAFTOL
TAF
KTOL 291720Z 2918/3018 06010KT 5SM -SHRA OVC015
      TEMPO 2918/2919 3SM -RA BR OVC010
     FM292000 06015G25KT P6SM BKN035
     FM300300 08010KT 6SM BR OVC010
     FM301600 13012G18KT P6SM OVC035=

USA.gov is the U.S. government's official web portal to all federal, state and local government web resources and services.